sensor_id;sensor_type;location;lat;lon;timestamp;P1;durP1;ratioP1;P2;durP2;ratioP2
74707;SDS011;63360;50.104;8.074;2023-12-20T00:01:02;0.90;;;0.30;;
74707;SDS011;63360;50.104;8.074;2023-12-20T00:03:29;0.80;;;0.30;;
74707;SDS011;63360;50.104;8.074;2023-12-20T00:06:07;1.58;;;0.30;;
74707;SDS011;63360;50.104;8.074;2023-12-20T00:08:33;1.17;;;0.30;;
74707;SDS011;63360;50.104;8.074;2023-12-20T00:11:00;0.85;;;0.30;;
74707;SDS011;63360;50.104;8.074;2023-12-20T00:13:26;0.93;;;0.30;;
74707;SDS011;63360;50.104;8.074;2023-12-20T00:15:52;0.50;;;0.20;;
74707;SDS011;63360;50.104;8.074;2023-12-20T00:18:19;1.00;;;0.30;;
74707;SDS011;63360;50.104;8.074;2023-12-20T00:20:45;3.97;;;0.30;;
74707;SDS011;63360;50.104;8.074;2023-12-20T00:23:12;0.50;;;0.15;;
74707;SDS011;63360;50.104;8.074;2023-12-20T00:25:38;0.40;;;0.10;;
74707;SDS011;63360;50.104;8.074;2023-12-20T00:28:04;0.73;;;0.20;;
74707;SDS011;63360;50.104;8.074;2023-12-20T00:30:31;1.15;;;0.20;;
74707;SDS011;63360;50.104;8.074;2023-12-20T00:32:57;0.70;;;0.20;;
74707;SDS011;63360;50.104;8.074;2023-12-20T00:35:24;0.68;;;0.20;;
74707;SDS011;63360;50.104;8.074;2023-12-20T00:37:50;0.40;;;0.10;;
74707;SDS011;63360;50.104;8.074;2023-12-20T00:40:16;0.30;;;0.20;;
74707;SDS011;63360;50.104;8.074;2023-12-20T00:42:43;0.73;;;0.20;;
74707;SDS011;63360;50.104;8.074;2023-12-20T00:45:09;0.60;;;0.20;;
74707;SDS011;63360;50.104;8.074;2023-12-20T00:47:36;0.77;;;0.20;;
74707;SDS011;63360;50.104;8.074;2023-12-20T00:50:02;0.40;;;0.20;;
74707;SDS011;63360;50.104;8.074;2023-12-20T00:52:29;0.50;;;0.20;;
74707;SDS011;63360;50.104;8.074;2023-12-20T00:54:55;1.65;;;0.20;;
74707;SDS011;63360;50.104;8.074;2023-12-20T00:57:22;0.57;;;0.20;;
74707;SDS011;63360;50.104;8.074;2023-12-20T00:59:48;0.68;;;0.20;;
74707;SDS011;63360;50.104;8.074;2023-12-20T01:02:14;0.80;;;0.20;;
74707;SDS011;63360;50.104;8.074;2023-12-20T01:04:41;0.93;;;0.20;;
74707;SDS011;63360;50.104;8.074;2023-12-20T01:07:07;0.40;;;0.20;;
74707;SDS011;63360;50.104;8.074;2023-12-20T01:09:34;1.85;;;0.20;;
74707;SDS011;63360;50.104;8.074;2023-12-20T01:12:00;0.70;;;0.30;;
74707;SDS011;63360;50.104;8.074;2023-12-20T01:14:26;0.70;;;0.20;;
74707;SDS011;63360;50.104;8.074;2023-12-20T01:16:53;0.73;;;0.20;;
74707;SDS011;63360;50.104;8.074;2023-12-20T01:19:20;0.80;;;0.30;;
74707;SDS011;63360;50.104;8.074;2023-12-20T01:21:46;0.60;;;0.25;;
74707;SDS011;63360;50.104;8.074;2023-12-20T01:24:13;0.95;;;0.30;;
74707;SDS011;63360;50.104;8.074;2023-12-20T01:26:39;1.23;;;0.30;;
74707;SDS011;63360;50.104;8.074;2023-12-20T01:29:05;0.85;;;0.30;;
74707;SDS011;63360;50.104;8.074;2023-12-20T01:31:32;0.70;;;0.30;;
74707;SDS011;63360;50.104;8.074;2023-12-20T01:33:58;0.88;;;0.30;;
74707;SDS011;63360;50.104;8.074;2023-12-20T01:36:25;1.10;;;0.30;;
74707;SDS011;63360;50.104;8.074;2023-12-20T01:38:51;0.70;;;0.30;;
74707;SDS011;63360;50.104;8.074;2023-12-20T01:41:17;0.90;;;0.30;;
74707;SDS011;63360;50.104;8.074;2023-12-20T01:43:44;1.00;;;0.40;;
74707;SDS011;63360;50.104;8.074;2023-12-20T01:46:17;1.30;;;0.40;;
74707;SDS011;63360;50.104;8.074;2023-12-20T01:48:43;1.67;;;0.40;;
74707;SDS011;63360;50.104;8.074;2023-12-20T01:51:10;1.00;;;0.37;;
74707;SDS011;63360;50.104;8.074;2023-12-20T01:53:37;1.00;;;0.40;;
74707;SDS011;63360;50.104;8.074;2023-12-20T01:56:05;0.82;;;0.35;;
74707;SDS011;63360;50.104;8.074;2023-12-20T01:58:32;0.95;;;0.30;;
74707;SDS011;63360;50.104;8.074;2023-12-20T02:00:59;0.93;;;0.40;;
74707;SDS011;63360;50.104;8.074;2023-12-20T02:03:26;1.07;;;0.40;;
74707;SDS011;63360;50.104;8.074;2023-12-20T02:05:52;1.13;;;0.43;;
74707;SDS011;63360;50.104;8.074;2023-12-20T02:08:19;1.27;;;0.50;;
74707;SDS011;63360;50.104;8.074;2023-12-20T02:10:45;2.25;;;0.60;;
74707;SDS011;63360;50.104;8.074;2023-12-20T02:13:12;1.33;;;0.50;;
74707;SDS011;63360;50.104;8.074;2023-12-20T02:15:38;1.20;;;0.57;;
74707;SDS011;63360;50.104;8.074;2023-12-20T02:18:04;1.83;;;0.70;;
74707;SDS011;63360;50.104;8.074;2023-12-20T02:20:32;2.05;;;0.70;;
74707;SDS011;63360;50.104;8.074;2023-12-20T02:22:58;2.58;;;0.55;;
74707;SDS011;63360;50.104;8.074;2023-12-20T02:25:24;3.22;;;0.60;;
74707;SDS011;63360;50.104;8.074;2023-12-20T02:27:51;1.63;;;0.60;;
74707;SDS011;63360;50.104;8.074;2023-12-20T02:30:18;1.30;;;0.60;;
74707;SDS011;63360;50.104;8.074;2023-12-20T02:32:44;2.65;;;0.70;;
74707;SDS011;63360;50.104;8.074;2023-12-20T02:35:11;2.05;;;0.70;;
74707;SDS011;63360;50.104;8.074;2023-12-20T02:37:37;1.60;;;0.90;;
74707;SDS011;63360;50.104;8.074;2023-12-20T02:40:03;1.80;;;0.73;;
74707;SDS011;63360;50.104;8.074;2023-12-20T02:42:30;1.45;;;0.60;;
74707;SDS011;63360;50.104;8.074;2023-12-20T02:44:56;1.60;;;0.70;;
74707;SDS011;63360;50.104;8.074;2023-12-20T02:47:23;1.73;;;0.77;;
74707;SDS011;63360;50.104;8.074;2023-12-20T02:49:49;4.25;;;0.80;;
74707;SDS011;63360;50.104;8.074;2023-12-20T02:52:16;1.90;;;0.70;;
74707;SDS011;63360;50.104;8.074;2023-12-20T02:54:42;1.40;;;0.57;;
74707;SDS011;63360;50.104;8.074;2023-12-20T02:57:09;1.30;;;0.50;;
74707;SDS011;63360;50.104;8.074;2023-12-20T02:59:35;1.75;;;0.52;;
74707;SDS011;63360;50.104;8.074;2023-12-20T03:02:01;1.00;;;0.40;;
74707;SDS011;63360;50.104;8.074;2023-12-20T03:04:28;1.07;;;0.40;;
74707;SDS011;63360;50.104;8.074;2023-12-20T03:06:55;1.15;;;0.40;;
74707;SDS011;63360;50.104;8.074;2023-12-20T03:09:21;1.00;;;0.40;;
74707;SDS011;63360;50.104;8.074;2023-12-20T03:11:47;1.33;;;0.50;;
74707;SDS011;63360;50.104;8.074;2023-12-20T03:14:14;1.13;;;0.40;;
74707;SDS011;63360;50.104;8.074;2023-12-20T03:16:40;1.17;;;0.40;;
74707;SDS011;63360;50.104;8.074;2023-12-20T03:19:06;1.00;;;0.43;;
74707;SDS011;63360;50.104;8.074;2023-12-20T03:21:33;1.48;;;0.50;;
74707;SDS011;63360;50.104;8.074;2023-12-20T03:23:59;1.33;;;0.60;;
74707;SDS011;63360;50.104;8.074;2023-12-20T03:26:25;4.18;;;0.70;;
74707;SDS011;63360;50.104;8.074;2023-12-20T03:28:52;1.93;;;0.67;;
74707;SDS011;63360;50.104;8.074;2023-12-20T03:31:18;2.63;;;0.82;;
74707;SDS011;63360;50.104;8.074;2023-12-20T03:33:46;1.40;;;0.60;;
74707;SDS011;63360;50.104;8.074;2023-12-20T03:36:12;1.98;;;0.80;;
74707;SDS011;63360;50.104;8.074;2023-12-20T03:38:38;2.58;;;1.00;;
74707;SDS011;63360;50.104;8.074;2023-12-20T03:41:05;3.67;;;1.13;;
74707;SDS011;63360;50.104;8.074;2023-12-20T03:43:31;2.20;;;1.00;;
74707;SDS011;63360;50.104;8.074;2023-12-20T03:45:57;2.70;;;1.17;;
74707;SDS011;63360;50.104;8.074;2023-12-20T03:48:25;2.55;;;1.20;;
74707;SDS011;63360;50.104;8.074;2023-12-20T03:50:51;2.97;;;1.17;;
74707;SDS011;63360;50.104;8.074;2023-12-20T03:53:18;3.30;;;1.40;;
74707;SDS011;63360;50.104;8.074;2023-12-20T03:55:44;3.60;;;1.63;;
74707;SDS011;63360;50.104;8.074;2023-12-20T03:58:10;3.78;;;1.73;;
74707;SDS011;63360;50.104;8.074;2023-12-20T04:00:37;3.40;;;1.45;;
74707;SDS011;63360;50.104;8.074;2023-12-20T04:03:04;2.75;;;1.20;;
74707;SDS011;63360;50.104;8.074;2023-12-20T04:05:30;3.23;;;1.63;;
74707;SDS011;63360;50.104;8.074;2023-12-20T04:07:57;3.30;;;1.55;;
74707;SDS011;63360;50.104;8.074;2023-12-20T04:10:23;4.60;;;1.60;;
74707;SDS011;63360;50.104;8.074;2023-12-20T04:12:49;3.50;;;1.50;;
74707;SDS011;63360;50.104;8.074;2023-12-20T04:15:16;3.15;;;1.27;;
74707;SDS011;63360;50.104;8.074;2023-12-20T04:17:42;3.50;;;1.10;;
74707;SDS011;63360;50.104;8.074;2023-12-20T04:20:10;2.95;;;1.30;;
74707;SDS011;63360;50.104;8.074;2023-12-20T04:22:37;3.65;;;1.42;;
74707;SDS011;63360;50.104;8.074;2023-12-20T04:25:03;3.30;;;1.45;;
74707;SDS011;63360;50.104;8.074;2023-12-20T04:27:30;5.25;;;1.80;;
74707;SDS011;63360;50.104;8.074;2023-12-20T04:29:56;4.10;;;1.27;;
74707;SDS011;63360;50.104;8.074;2023-12-20T04:32:22;3.83;;;1.10;;
74707;SDS011;63360;50.104;8.074;2023-12-20T04:34:49;3.17;;;1.00;;
74707;SDS011;63360;50.104;8.074;2023-12-20T04:37:15;3.17;;;0.80;;
74707;SDS011;63360;50.104;8.074;2023-12-20T04:39:42;3.35;;;0.80;;
74707;SDS011;63360;50.104;8.074;2023-12-20T04:42:08;2.57;;;0.73;;
74707;SDS011;63360;50.104;8.074;2023-12-20T04:44:35;3.78;;;0.85;;
74707;SDS011;63360;50.104;8.074;2023-12-20T04:47:01;1.85;;;0.70;;
74707;SDS011;63360;50.104;8.074;2023-12-20T04:49:27;2.45;;;0.60;;
74707;SDS011;63360;50.104;8.074;2023-12-20T04:51:54;2.95;;;0.70;;
74707;SDS011;63360;50.104;8.074;2023-12-20T04:54:21;3.63;;;0.93;;
74707;SDS011;63360;50.104;8.074;2023-12-20T04:56:48;3.55;;;0.70;;
74707;SDS011;63360;50.104;8.074;2023-12-20T04:59:14;3.58;;;0.70;;
74707;SDS011;63360;50.104;8.074;2023-12-20T05:01:41;4.55;;;0.90;;
74707;SDS011;63360;50.104;8.074;2023-12-20T05:04:07;3.95;;;0.90;;
74707;SDS011;63360;50.104;8.074;2023-12-20T05:06:34;4.67;;;0.80;;
74707;SDS011;63360;50.104;8.074;2023-12-20T05:09:00;2.97;;;0.82;;
74707;SDS011;63360;50.104;8.074;2023-12-20T05:11:27;2.75;;;0.60;;
74707;SDS011;63360;50.104;8.074;2023-12-20T05:13:53;5.88;;;1.00;;
74707;SDS011;63360;50.104;8.074;2023-12-20T05:16:19;3.92;;;0.70;;
74707;SDS011;63360;50.104;8.074;2023-12-20T05:18:48;4.63;;;0.90;;
74707;SDS011;63360;50.104;8.074;2023-12-20T05:21:16;6.80;;;1.05;;
74707;SDS011;63360;50.104;8.074;2023-12-20T05:23:42;3.20;;;0.93;;
74707;SDS011;63360;50.104;8.074;2023-12-20T05:26:09;4.95;;;1.05;;
74707;SDS011;63360;50.104;8.074;2023-12-20T05:28:35;3.95;;;0.80;;
74707;SDS011;63360;50.104;8.074;2023-12-20T05:31:02;6.17;;;1.10;;
74707;SDS011;63360;50.104;8.074;2023-12-20T05:33:28;3.47;;;0.93;;
74707;SDS011;63360;50.104;8.074;2023-12-20T05:35:55;3.40;;;0.90;;
74707;SDS011;63360;50.104;8.074;2023-12-20T05:38:21;6.32;;;1.00;;
74707;SDS011;63360;50.104;8.074;2023-12-20T05:40:47;4.78;;;1.02;;
74707;SDS011;63360;50.104;8.074;2023-12-20T05:43:14;4.70;;;0.87;;
74707;SDS011;63360;50.104;8.074;2023-12-20T05:45:40;4.25;;;1.10;;
74707;SDS011;63360;50.104;8.074;2023-12-20T05:48:06;4.30;;;1.27;;
74707;SDS011;63360;50.104;8.074;2023-12-20T05:50:33;5.88;;;1.20;;
74707;SDS011;63360;50.104;8.074;2023-12-20T05:53:01;6.00;;;1.10;;
74707;SDS011;63360;50.104;8.074;2023-12-20T05:55:27;4.30;;;1.20;;
74707;SDS011;63360;50.104;8.074;2023-12-20T05:57:53;6.20;;;1.20;;
74707;SDS011;63360;50.104;8.074;2023-12-20T06:00:20;4.47;;;1.15;;
74707;SDS011;63360;50.104;8.074;2023-12-20T06:02:46;3.88;;;0.93;;
74707;SDS011;63360;50.104;8.074;2023-12-20T06:05:13;6.68;;;1.50;;
74707;SDS011;63360;50.104;8.074;2023-12-20T06:07:39;4.43;;;1.40;;
74707;SDS011;63360;50.104;8.074;2023-12-20T06:10:05;3.67;;;1.30;;
74707;SDS011;63360;50.104;8.074;2023-12-20T06:12:32;6.63;;;1.20;;
74707;SDS011;63360;50.104;8.074;2023-12-20T06:15:02;4.72;;;1.30;;
74707;SDS011;63360;50.104;8.074;2023-12-20T06:17:28;3.78;;;1.20;;
74707;SDS011;63360;50.104;8.074;2023-12-20T06:19:57;5.93;;;1.20;;
74707;SDS011;63360;50.104;8.074;2023-12-20T06:22:23;6.05;;;1.23;;
74707;SDS011;63360;50.104;8.074;2023-12-20T06:24:50;7.97;;;1.38;;
74707;SDS011;63360;50.104;8.074;2023-12-20T06:27:16;5.65;;;1.35;;
74707;SDS011;63360;50.104;8.074;2023-12-20T06:29:43;6.53;;;1.30;;
74707;SDS011;63360;50.104;8.074;2023-12-20T06:32:11;5.13;;;1.10;;
74707;SDS011;63360;50.104;8.074;2023-12-20T06:34:37;3.58;;;1.20;;
74707;SDS011;63360;50.104;8.074;2023-12-20T06:37:04;4.63;;;1.00;;
74707;SDS011;63360;50.104;8.074;2023-12-20T06:39:31;4.18;;;1.25;;
74707;SDS011;63360;50.104;8.074;2023-12-20T06:41:57;5.18;;;1.75;;
74707;SDS011;63360;50.104;8.074;2023-12-20T06:44:24;7.30;;;1.30;;
74707;SDS011;63360;50.104;8.074;2023-12-20T06:46:50;5.78;;;1.13;;
74707;SDS011;63360;50.104;8.074;2023-12-20T06:49:16;5.63;;;1.40;;
74707;SDS011;63360;50.104;8.074;2023-12-20T06:51:43;7.05;;;1.70;;
74707;SDS011;63360;50.104;8.074;2023-12-20T06:54:10;5.13;;;1.45;;
74707;SDS011;63360;50.104;8.074;2023-12-20T06:56:36;2.83;;;1.40;;
74707;SDS011;63360;50.104;8.074;2023-12-20T06:59:03;5.65;;;1.25;;
74707;SDS011;63360;50.104;8.074;2023-12-20T07:01:29;2.55;;;1.02;;
74707;SDS011;63360;50.104;8.074;2023-12-20T07:03:55;5.93;;;0.95;;
74707;SDS011;63360;50.104;8.074;2023-12-20T07:06:22;8.32;;;1.00;;
74707;SDS011;63360;50.104;8.074;2023-12-20T07:08:52;5.23;;;1.17;;
74707;SDS011;63360;50.104;8.074;2023-12-20T07:11:18;4.38;;;0.90;;
74707;SDS011;63360;50.104;8.074;2023-12-20T07:13:45;4.22;;;0.80;;
74707;SDS011;63360;50.104;8.074;2023-12-20T07:16:11;2.78;;;1.00;;
74707;SDS011;63360;50.104;8.074;2023-12-20T07:18:39;6.38;;;0.90;;
74707;SDS011;63360;50.104;8.074;2023-12-20T07:21:05;6.37;;;1.43;;
74707;SDS011;63360;50.104;8.074;2023-12-20T07:23:34;6.63;;;1.10;;
74707;SDS011;63360;50.104;8.074;2023-12-20T07:26:00;4.00;;;1.00;;
74707;SDS011;63360;50.104;8.074;2023-12-20T07:28:26;5.75;;;1.17;;
74707;SDS011;63360;50.104;8.074;2023-12-20T07:30:53;5.25;;;0.80;;
74707;SDS011;63360;50.104;8.074;2023-12-20T07:33:19;6.17;;;0.93;;
74707;SDS011;63360;50.104;8.074;2023-12-20T07:35:46;2.80;;;0.80;;
74707;SDS011;63360;50.104;8.074;2023-12-20T07:38:12;7.78;;;1.95;;
74707;SDS011;63360;50.104;8.074;2023-12-20T07:40:39;5.03;;;0.80;;
74707;SDS011;63360;50.104;8.074;2023-12-20T07:43:05;4.57;;;1.13;;
74707;SDS011;63360;50.104;8.074;2023-12-20T07:45:31;5.00;;;1.60;;
74707;SDS011;63360;50.104;8.074;2023-12-20T07:47:58;4.72;;;1.20;;
74707;SDS011;63360;50.104;8.074;2023-12-20T07:50:24;5.72;;;1.55;;
74707;SDS011;63360;50.104;8.074;2023-12-20T07:52:51;6.78;;;1.70;;
74707;SDS011;63360;50.104;8.074;2023-12-20T07:55:17;5.60;;;1.02;;
74707;SDS011;63360;50.104;8.074;2023-12-20T07:57:44;8.57;;;1.10;;
74707;SDS011;63360;50.104;8.074;2023-12-20T08:00:10;6.18;;;1.10;;
74707;SDS011;63360;50.104;8.074;2023-12-20T08:02:37;7.47;;;1.40;;
74707;SDS011;63360;50.104;8.074;2023-12-20T08:05:04;3.25;;;0.82;;
74707;SDS011;63360;50.104;8.074;2023-12-20T08:07:30;5.72;;;1.23;;
74707;SDS011;63360;50.104;8.074;2023-12-20T08:09:57;6.07;;;1.00;;
74707;SDS011;63360;50.104;8.074;2023-12-20T08:12:24;4.60;;;1.13;;
74707;SDS011;63360;50.104;8.074;2023-12-20T08:14:54;7.70;;;1.25;;
74707;SDS011;63360;50.104;8.074;2023-12-20T08:17:20;6.30;;;1.42;;
74707;SDS011;63360;50.104;8.074;2023-12-20T08:19:46;6.38;;;1.17;;
74707;SDS011;63360;50.104;8.074;2023-12-20T08:22:13;5.00;;;1.20;;
74707;SDS011;63360;50.104;8.074;2023-12-20T08:24:39;4.10;;;1.00;;
74707;SDS011;63360;50.104;8.074;2023-12-20T08:27:06;7.05;;;1.23;;
74707;SDS011;63360;50.104;8.074;2023-12-20T08:29:32;4.80;;;0.80;;
74707;SDS011;63360;50.104;8.074;2023-12-20T08:31:59;5.05;;;0.90;;
74707;SDS011;63360;50.104;8.074;2023-12-20T08:34:25;2.93;;;0.80;;
74707;SDS011;63360;50.104;8.074;2023-12-20T08:36:52;3.38;;;1.00;;
74707;SDS011;63360;50.104;8.074;2023-12-20T08:39:18;6.00;;;1.20;;
74707;SDS011;63360;50.104;8.074;2023-12-20T08:41:45;5.28;;;1.10;;
74707;SDS011;63360;50.104;8.074;2023-12-20T08:44:11;5.15;;;1.08;;
74707;SDS011;63360;50.104;8.074;2023-12-20T08:46:38;6.83;;;1.30;;
74707;SDS011;63360;50.104;8.074;2023-12-20T08:49:04;8.65;;;1.35;;
74707;SDS011;63360;50.104;8.074;2023-12-20T08:51:31;6.68;;;1.38;;
74707;SDS011;63360;50.104;8.074;2023-12-20T08:53:57;7.07;;;1.27;;
74707;SDS011;63360;50.104;8.074;2023-12-20T08:56:24;7.20;;;1.50;;
74707;SDS011;63360;50.104;8.074;2023-12-20T08:58:50;5.70;;;1.20;;
74707;SDS011;63360;50.104;8.074;2023-12-20T09:01:17;6.55;;;1.58;;
74707;SDS011;63360;50.104;8.074;2023-12-20T09:03:43;8.55;;;1.38;;
74707;SDS011;63360;50.104;8.074;2023-12-20T09:06:10;5.53;;;1.40;;
74707;SDS011;63360;50.104;8.074;2023-12-20T09:08:36;6.78;;;1.92;;
74707;SDS011;63360;50.104;8.074;2023-12-20T09:11:03;10.33;;;1.50;;
74707;SDS011;63360;50.104;8.074;2023-12-20T09:13:29;8.82;;;1.25;;
74707;SDS011;63360;50.104;8.074;2023-12-20T09:15:58;6.90;;;1.45;;
74707;SDS011;63360;50.104;8.074;2023-12-20T09:18:24;7.50;;;1.73;;
74707;SDS011;63360;50.104;8.074;2023-12-20T09:20:51;8.38;;;1.65;;
74707;SDS011;63360;50.104;8.074;2023-12-20T09:23:17;8.33;;;1.97;;
74707;SDS011;63360;50.104;8.074;2023-12-20T09:25:44;7.15;;;2.05;;
74707;SDS011;63360;50.104;8.074;2023-12-20T09:28:10;7.90;;;1.80;;
74707;SDS011;63360;50.104;8.074;2023-12-20T09:30:37;10.10;;;2.22;;
74707;SDS011;63360;50.104;8.074;2023-12-20T09:33:06;9.20;;;1.90;;
74707;SDS011;63360;50.104;8.074;2023-12-20T09:35:33;8.57;;;2.00;;
74707;SDS011;63360;50.104;8.074;2023-12-20T09:38:00;9.05;;;1.50;;
74707;SDS011;63360;50.104;8.074;2023-12-20T09:40:26;7.93;;;1.50;;
74707;SDS011;63360;50.104;8.074;2023-12-20T09:42:58;8.70;;;1.60;;
74707;SDS011;63360;50.104;8.074;2023-12-20T09:45:31;6.00;;;1.40;;
74707;SDS011;63360;50.104;8.074;2023-12-20T09:47:58;8.73;;;1.83;;
74707;SDS011;63360;50.104;8.074;2023-12-20T09:50:25;7.25;;;1.60;;
74707;SDS011;63360;50.104;8.074;2023-12-20T09:52:52;9.25;;;2.45;;
74707;SDS011;63360;50.104;8.074;2023-12-20T09:55:20;8.52;;;1.48;;
74707;SDS011;63360;50.104;8.074;2023-12-20T09:57:47;5.93;;;1.63;;
74707;SDS011;63360;50.104;8.074;2023-12-20T10:00:15;4.13;;;1.30;;
74707;SDS011;63360;50.104;8.074;2023-12-20T10:03:04;5.88;;;1.52;;
74707;SDS011;63360;50.104;8.074;2023-12-20T10:05:32;7.07;;;1.50;;
74707;SDS011;63360;50.104;8.074;2023-12-20T10:07:59;6.53;;;1.30;;
74707;SDS011;63360;50.104;8.074;2023-12-20T10:10:28;5.50;;;1.70;;
74707;SDS011;63360;50.104;8.074;2023-12-20T10:13:10;10.00;;;1.23;;
74707;SDS011;63360;50.104;8.074;2023-12-20T10:15:38;5.97;;;1.60;;
74707;SDS011;63360;50.104;8.074;2023-12-20T10:18:05;7.82;;;1.70;;
74707;SDS011;63360;50.104;8.074;2023-12-20T10:20:33;7.55;;;2.03;;
74707;SDS011;63360;50.104;8.074;2023-12-20T10:23:00;6.90;;;1.90;;
74707;SDS011;63360;50.104;8.074;2023-12-20T10:25:27;6.10;;;1.40;;
74707;SDS011;63360;50.104;8.074;2023-12-20T10:28:13;7.40;;;1.33;;
74707;SDS011;63360;50.104;8.074;2023-12-20T10:30:45;8.07;;;1.80;;
74707;SDS011;63360;50.104;8.074;2023-12-20T10:33:11;8.07;;;1.40;;
74707;SDS011;63360;50.104;8.074;2023-12-20T10:35:38;6.57;;;1.30;;
74707;SDS011;63360;50.104;8.074;2023-12-20T10:38:11;5.67;;;1.40;;
74707;SDS011;63360;50.104;8.074;2023-12-20T10:40:39;3.95;;;1.25;;
74707;SDS011;63360;50.104;8.074;2023-12-20T10:43:05;7.25;;;1.15;;
74707;SDS011;63360;50.104;8.074;2023-12-20T10:45:32;5.07;;;1.23;;
74707;SDS011;63360;50.104;8.074;2023-12-20T10:48:00;6.70;;;1.23;;
74707;SDS011;63360;50.104;8.074;2023-12-20T10:50:28;6.27;;;1.40;;
74707;SDS011;63360;50.104;8.074;2023-12-20T10:52:56;8.57;;;1.20;;
74707;SDS011;63360;50.104;8.074;2023-12-20T10:55:23;5.45;;;1.33;;
74707;SDS011;63360;50.104;8.074;2023-12-20T10:57:51;7.13;;;1.83;;
74707;SDS011;63360;50.104;8.074;2023-12-20T11:00:18;6.30;;;1.20;;
74707;SDS011;63360;50.104;8.074;2023-12-20T11:02:47;7.50;;;1.30;;
74707;SDS011;63360;50.104;8.074;2023-12-20T11:08:19;7.25;;;1.50;;
74707;SDS011;63360;50.104;8.074;2023-12-20T11:11:04;6.30;;;1.77;;
74707;SDS011;63360;50.104;8.074;2023-12-20T11:13:36;3.95;;;1.35;;
74707;SDS011;63360;50.104;8.074;2023-12-20T11:16:10;6.03;;;1.40;;
74707;SDS011;63360;50.104;8.074;2023-12-20T11:18:36;5.72;;;1.23;;
74707;SDS011;63360;50.104;8.074;2023-12-20T11:21:06;4.13;;;1.23;;
74707;SDS011;63360;50.104;8.074;2023-12-20T11:23:33;9.80;;;2.00;;
74707;SDS011;63360;50.104;8.074;2023-12-20T11:26:01;5.63;;;1.48;;
74707;SDS011;63360;50.104;8.074;2023-12-20T11:28:28;5.40;;;1.40;;
74707;SDS011;63360;50.104;8.074;2023-12-20T11:31:00;5.18;;;1.42;;
74707;SDS011;63360;50.104;8.074;2023-12-20T11:33:35;4.20;;;1.15;;
74707;SDS011;63360;50.104;8.074;2023-12-20T11:36:03;5.82;;;1.30;;
74707;SDS011;63360;50.104;8.074;2023-12-20T11:38:38;4.93;;;1.23;;
74707;SDS011;63360;50.104;8.074;2023-12-20T11:41:05;6.03;;;1.33;;
74707;SDS011;63360;50.104;8.074;2023-12-20T11:43:37;6.25;;;1.50;;
74707;SDS011;63360;50.104;8.074;2023-12-20T11:46:06;7.38;;;1.27;;
74707;SDS011;63360;50.104;8.074;2023-12-20T11:48:35;6.57;;;0.90;;
74707;SDS011;63360;50.104;8.074;2023-12-20T11:51:08;6.57;;;1.20;;
74707;SDS011;63360;50.104;8.074;2023-12-20T11:53:36;4.60;;;0.90;;
74707;SDS011;63360;50.104;8.074;2023-12-20T11:56:03;6.93;;;1.00;;
74707;SDS011;63360;50.104;8.074;2023-12-20T11:58:32;5.65;;;1.10;;
74707;SDS011;63360;50.104;8.074;2023-12-20T12:01:01;6.30;;;1.10;;
74707;SDS011;63360;50.104;8.074;2023-12-20T12:03:28;5.15;;;1.10;;
74707;SDS011;63360;50.104;8.074;2023-12-20T12:05:55;4.77;;;1.10;;
74707;SDS011;63360;50.104;8.074;2023-12-20T12:08:21;5.75;;;1.17;;
74707;SDS011;63360;50.104;8.074;2023-12-20T12:10:48;5.18;;;1.08;;
74707;SDS011;63360;50.104;8.074;2023-12-20T12:13:14;5.68;;;1.10;;
74707;SDS011;63360;50.104;8.074;2023-12-20T12:15:41;5.53;;;1.05;;
74707;SDS011;63360;50.104;8.074;2023-12-20T12:18:08;3.23;;;1.30;;
74707;SDS011;63360;50.104;8.074;2023-12-20T12:20:35;5.28;;;1.25;;
74707;SDS011;63360;50.104;8.074;2023-12-20T12:23:04;5.95;;;1.38;;
74707;SDS011;63360;50.104;8.074;2023-12-20T12:25:32;6.38;;;1.25;;
74707;SDS011;63360;50.104;8.074;2023-12-20T12:28:06;4.18;;;1.13;;
74707;SDS011;63360;50.104;8.074;2023-12-20T12:30:33;4.53;;;1.03;;
74707;SDS011;63360;50.104;8.074;2023-12-20T12:33:04;3.47;;;1.20;;
74707;SDS011;63360;50.104;8.074;2023-12-20T12:35:31;3.42;;;1.15;;
74707;SDS011;63360;50.104;8.074;2023-12-20T12:37:58;8.13;;;1.23;;
74707;SDS011;63360;50.104;8.074;2023-12-20T12:40:25;3.80;;;1.25;;
74707;SDS011;63360;50.104;8.074;2023-12-20T12:42:51;4.33;;;1.20;;
74707;SDS011;63360;50.104;8.074;2023-12-20T12:45:18;5.40;;;1.10;;
74707;SDS011;63360;50.104;8.074;2023-12-20T12:47:44;3.35;;;1.00;;
74707;SDS011;63360;50.104;8.074;2023-12-20T12:50:11;6.50;;;1.20;;
74707;SDS011;63360;50.104;8.074;2023-12-20T12:52:38;4.78;;;1.25;;
74707;SDS011;63360;50.104;8.074;2023-12-20T12:55:04;3.87;;;1.07;;
74707;SDS011;63360;50.104;8.074;2023-12-20T12:57:31;5.47;;;1.08;;
74707;SDS011;63360;50.104;8.074;2023-12-20T12:59:59;5.15;;;1.30;;
74707;SDS011;63360;50.104;8.074;2023-12-20T13:02:25;3.17;;;1.15;;
74707;SDS011;63360;50.104;8.074;2023-12-20T13:04:51;7.57;;;1.40;;
74707;SDS011;63360;50.104;8.074;2023-12-20T13:07:18;3.60;;;1.00;;
74707;SDS011;63360;50.104;8.074;2023-12-20T13:09:44;4.53;;;1.13;;
74707;SDS011;63360;50.104;8.074;2023-12-20T13:12:11;4.88;;;1.38;;
74707;SDS011;63360;50.104;8.074;2023-12-20T13:14:37;8.18;;;1.45;;
74707;SDS011;63360;50.104;8.074;2023-12-20T13:17:04;6.60;;;1.23;;
74707;SDS011;63360;50.104;8.074;2023-12-20T13:19:30;6.07;;;1.30;;
74707;SDS011;63360;50.104;8.074;2023-12-20T13:21:57;7.57;;;1.20;;
74707;SDS011;63360;50.104;8.074;2023-12-20T13:24:24;4.70;;;1.38;;
74707;SDS011;63360;50.104;8.074;2023-12-20T13:26:50;4.53;;;1.10;;
74707;SDS011;63360;50.104;8.074;2023-12-20T13:29:17;6.47;;;1.40;;
74707;SDS011;63360;50.104;8.074;2023-12-20T13:31:43;4.33;;;1.60;;
74707;SDS011;63360;50.104;8.074;2023-12-20T13:34:10;5.38;;;1.30;;
74707;SDS011;63360;50.104;8.074;2023-12-20T13:36:36;6.40;;;1.38;;
74707;SDS011;63360;50.104;8.074;2023-12-20T13:39:03;4.85;;;1.20;;
74707;SDS011;63360;50.104;8.074;2023-12-20T13:41:31;2.67;;;1.00;;
74707;SDS011;63360;50.104;8.074;2023-12-20T13:43:57;5.00;;;1.27;;
74707;SDS011;63360;50.104;8.074;2023-12-20T13:46:24;4.40;;;0.90;;
74707;SDS011;63360;50.104;8.074;2023-12-20T13:48:50;7.13;;;1.35;;
74707;SDS011;63360;50.104;8.074;2023-12-20T13:51:17;4.15;;;1.10;;
74707;SDS011;63360;50.104;8.074;2023-12-20T13:53:44;4.10;;;1.00;;
74707;SDS011;63360;50.104;8.074;2023-12-20T13:56:10;4.50;;;1.20;;
74707;SDS011;63360;50.104;8.074;2023-12-20T13:58:36;7.20;;;1.20;;
74707;SDS011;63360;50.104;8.074;2023-12-20T14:01:03;3.80;;;1.05;;
74707;SDS011;63360;50.104;8.074;2023-12-20T14:03:30;4.00;;;1.20;;
74707;SDS011;63360;50.104;8.074;2023-12-20T14:05:57;5.80;;;0.80;;
74707;SDS011;63360;50.104;8.074;2023-12-20T14:08:23;4.63;;;0.80;;
74707;SDS011;63360;50.104;8.074;2023-12-20T14:10:50;3.58;;;0.80;;
74707;SDS011;63360;50.104;8.074;2023-12-20T14:13:16;7.38;;;1.23;;
74707;SDS011;63360;50.104;8.074;2023-12-20T14:15:42;2.53;;;0.82;;
74707;SDS011;63360;50.104;8.074;2023-12-20T14:18:10;4.68;;;1.23;;
74707;SDS011;63360;50.104;8.074;2023-12-20T14:20:38;2.43;;;0.60;;
74707;SDS011;63360;50.104;8.074;2023-12-20T14:23:05;3.33;;;0.73;;
74707;SDS011;63360;50.104;8.074;2023-12-20T14:25:32;7.30;;;0.90;;
74707;SDS011;63360;50.104;8.074;2023-12-20T14:28:11;4.10;;;0.80;;
74707;SDS011;63360;50.104;8.074;2023-12-20T14:30:40;5.55;;;0.80;;
74707;SDS011;63360;50.104;8.074;2023-12-20T14:33:06;3.17;;;0.70;;
74707;SDS011;63360;50.104;8.074;2023-12-20T14:35:33;5.45;;;1.10;;
74707;SDS011;63360;50.104;8.074;2023-12-20T14:37:59;9.13;;;1.10;;
74707;SDS011;63360;50.104;8.074;2023-12-20T14:40:25;1.77;;;0.57;;
74707;SDS011;63360;50.104;8.074;2023-12-20T14:42:52;4.70;;;1.35;;
74707;SDS011;63360;50.104;8.074;2023-12-20T14:45:19;4.63;;;0.90;;
74707;SDS011;63360;50.104;8.074;2023-12-20T14:47:45;4.25;;;1.05;;
74707;SDS011;63360;50.104;8.074;2023-12-20T14:50:14;4.45;;;1.00;;